WZZ22PJ EPKK-LIMJ
Flight info
| Callsign | WZZ22PJ |
|---|---|
| Flight time | 1h 26m |
| Altitude | 34000 |
| Route | TUSIN DCT MIKOV DCT SITNI DCT LIMRA DCT BUMUK DCT DETSA/N0425F330 DCT DIBAX DCT TAGIP DCT NESTI DCT OSKOR DCT PIKOT |
| Aircraft | A21N/M-SDE2E3FGHIRWXY/LB1 |
Departure
| Time | 2026-04-23 16:27 |
|---|---|
| Airport | Kraków John Paul II International Airport (EPKK) |
Arrival
| Time | 2026-04-23 17:53 |
|---|---|
| Airport | Genoa Cristoforo Colombo Airport (LIMJ) |
| Time | Latitude | Longitude | Altitude | Speed | Heading |
|---|---|---|---|---|---|
| 2026-04-23 15:59 | 50.07499 | 19.80491 | 806 ft | 0 kts | 107° |
| 2026-04-23 16:19 | 50.07503 | 19.80472 | 805 ft | 3 kts | 107° |
| 2026-04-23 16:19 | 50.07508 | 19.80442 | 805 ft | 3 kts | 107° |
| 2026-04-23 16:19 | 50.07514 | 19.80415 | 805 ft | 3 kts | 91° |
| 2026-04-23 16:19 | 50.07511 | 19.80399 | 805 ft | 3 kts | 27° |
| 2026-04-23 16:20 | 50.07499 | 19.80391 | 805 ft | 1 kts | 16° |
| 2026-04-23 16:20 | 50.07482 | 19.80384 | 805 ft | 3 kts | 16° |
| 2026-04-23 16:20 | 50.07470 | 19.80378 | 805 ft | 0 kts | 16° |
| 2026-04-23 16:24 | 50.07472 | 19.80379 | 805 ft | 1 kts | 16° |
| 2026-04-23 16:24 | 50.07498 | 19.80390 | 805 ft | 6 kts | 16° |
| 2026-04-23 16:24 | 50.07556 | 19.80418 | 805 ft | 11 kts | 15° |
| 2026-04-23 16:24 | 50.07639 | 19.80404 | 805 ft | 13 kts | 347° |
| 2026-04-23 16:25 | 50.07695 | 19.80386 | 805 ft | 14 kts | 349° |
| 2026-04-23 16:25 | 50.07826 | 19.80344 | 805 ft | 15 kts | 348° |
| 2026-04-23 16:25 | 50.07851 | 19.80335 | 805 ft | 0 kts | 347° |
| 2026-04-23 16:25 | 50.07866 | 19.80330 | 805 ft | 5 kts | 347° |
| 2026-04-23 16:26 | 50.07926 | 19.80309 | 805 ft | 12 kts | 347° |
| 2026-04-23 16:26 | 50.08011 | 19.80231 | 805 ft | 17 kts | 278° |
| 2026-04-23 16:26 | 50.07991 | 19.80041 | 806 ft | 19 kts | 258° |
| 2026-04-23 16:26 | 50.07943 | 19.79689 | 806 ft | 65 kts | 259° |
| 2026-04-23 16:27 | 50.07793 | 19.78615 | 806 ft | 137 kts | 258° |
| 2026-04-23 16:27 | 50.07572 | 19.77030 | 1057 ft | 162 kts | 261° |
| 2026-04-23 16:27 | 50.07286 | 19.75368 | 1935 ft | 156 kts | 262° |
| 2026-04-23 16:27 | 50.07001 | 19.73674 | 2422 ft | 169 kts | 264° |
| 2026-04-23 16:28 | 50.06750 | 19.71828 | 2881 ft | 179 kts | 266° |
| 2026-04-23 16:28 | 50.06525 | 19.69883 | 3430 ft | 187 kts | 265° |
| 2026-04-23 16:28 | 50.06269 | 19.67819 | 3906 ft | 200 kts | 264° |
| 2026-04-23 16:28 | 50.05971 | 19.65628 | 4401 ft | 213 kts | 263° |
| 2026-04-23 16:29 | 50.05837 | 19.63318 | 4862 ft | 223 kts | 278° |
| 2026-04-23 16:29 | 50.05945 | 19.60818 | 5292 ft | 242 kts | 278° |
| 2026-04-23 16:29 | 50.06064 | 19.58119 | 5801 ft | 256 kts | 278° |
| 2026-04-23 16:29 | 50.06177 | 19.55291 | 6553 ft | 260 kts | 278° |
| 2026-04-23 16:30 | 50.06284 | 19.52493 | 7299 ft | 264 kts | 278° |
| 2026-04-23 16:30 | 50.06391 | 19.49615 | 8029 ft | 270 kts | 278° |
| 2026-04-23 16:30 | 50.06497 | 19.46655 | 8704 ft | 276 kts | 278° |
| 2026-04-23 16:30 | 50.06605 | 19.43640 | 9454 ft | 281 kts | 279° |
| 2026-04-23 16:31 | 50.06713 | 19.40573 | 10143 ft | 286 kts | 279° |
| 2026-04-23 16:31 | 50.06753 | 19.37414 | 10639 ft | 303 kts | 269° |
| 2026-04-23 16:31 | 50.06153 | 19.34133 | 10965 ft | 329 kts | 253° |
| 2026-04-23 16:31 | 50.05214 | 19.30802 | 11403 ft | 342 kts | 250° |
| 2026-04-23 16:32 | 50.04225 | 19.27390 | 12051 ft | 347 kts | 251° |
| 2026-04-23 16:32 | 50.03247 | 19.23932 | 12767 ft | 350 kts | 251° |
| 2026-04-23 16:32 | 50.02285 | 19.20481 | 13476 ft | 353 kts | 251° |
| 2026-04-23 16:32 | 50.01311 | 19.16953 | 14138 ft | 357 kts | 251° |
| 2026-04-23 16:33 | 50.00329 | 19.13379 | 14752 ft | 361 kts | 251° |
| 2026-04-23 16:33 | 49.99341 | 19.09780 | 15375 ft | 365 kts | 251° |
| 2026-04-23 16:33 | 49.98336 | 19.06127 | 15989 ft | 369 kts | 251° |
| 2026-04-23 16:33 | 49.97318 | 19.02441 | 16606 ft | 373 kts | 251° |
| 2026-04-23 16:34 | 49.96293 | 18.98724 | 17221 ft | 376 kts | 251° |
| 2026-04-23 16:34 | 49.95254 | 18.94968 | 17802 ft | 381 kts | 251° |
| 2026-04-23 16:34 | 49.94200 | 18.91158 | 18388 ft | 385 kts | 251° |
| 2026-04-23 16:34 | 49.93113 | 18.87332 | 18881 ft | 391 kts | 247° |
| 2026-04-23 16:35 | 49.91629 | 18.83802 | 19358 ft | 400 kts | 236° |
| 2026-04-23 16:35 | 49.89918 | 18.80370 | 19838 ft | 404 kts | 235° |
| 2026-04-23 16:35 | 49.88173 | 18.76920 | 20291 ft | 409 kts | 235° |
| 2026-04-23 16:35 | 49.86417 | 18.73408 | 20777 ft | 413 kts | 235° |
| 2026-04-23 16:36 | 49.84657 | 18.69856 | 21233 ft | 417 kts | 236° |
| 2026-04-23 16:36 | 49.82883 | 18.66261 | 21689 ft | 422 kts | 236° |
| 2026-04-23 16:36 | 49.81094 | 18.62624 | 22157 ft | 425 kts | 235° |
| 2026-04-23 16:36 | 49.79289 | 18.58964 | 22611 ft | 430 kts | 235° |
| 2026-04-23 16:37 | 49.77463 | 18.55264 | 23048 ft | 434 kts | 235° |
| 2026-04-23 16:37 | 49.75619 | 18.51532 | 23473 ft | 439 kts | 235° |
| 2026-04-23 16:37 | 49.73751 | 18.47764 | 23850 ft | 443 kts | 235° |
| 2026-04-23 16:37 | 49.71871 | 18.43968 | 24222 ft | 446 kts | 235° |
| 2026-04-23 16:38 | 49.69973 | 18.40144 | 24612 ft | 450 kts | 235° |
| 2026-04-23 16:38 | 49.68060 | 18.36301 | 24985 ft | 453 kts | 234° |
| 2026-04-23 16:38 | 49.66136 | 18.32439 | 25353 ft | 456 kts | 234° |
| 2026-04-23 16:38 | 49.64189 | 18.28542 | 25715 ft | 459 kts | 234° |
| 2026-04-23 16:39 | 49.62233 | 18.24626 | 26044 ft | 462 kts | 234° |
| 2026-04-23 16:39 | 49.60289 | 18.20738 | 26392 ft | 465 kts | 234° |
| 2026-04-23 16:39 | 49.58309 | 18.16785 | 26737 ft | 468 kts | 234° |
| 2026-04-23 16:39 | 49.56308 | 18.12799 | 27076 ft | 471 kts | 234° |
| 2026-04-23 16:40 | 49.54289 | 18.08786 | 27404 ft | 474 kts | 234° |
| 2026-04-23 16:40 | 49.52260 | 18.04750 | 27735 ft | 477 kts | 234° |
| 2026-04-23 16:40 | 49.50223 | 18.00702 | 28064 ft | 480 kts | 234° |
| 2026-04-23 16:40 | 49.48163 | 17.96619 | 28378 ft | 483 kts | 234° |
| 2026-04-23 16:41 | 49.46098 | 17.92534 | 28685 ft | 485 kts | 234° |
| 2026-04-23 16:41 | 49.44023 | 17.88440 | 29000 ft | 488 kts | 234° |
| 2026-04-23 16:41 | 49.41931 | 17.84313 | 29304 ft | 491 kts | 234° |
| 2026-04-23 16:41 | 49.39828 | 17.80176 | 29601 ft | 493 kts | 234° |
| 2026-04-23 16:42 | 49.37705 | 17.76007 | 29891 ft | 496 kts | 234° |
| 2026-04-23 16:42 | 49.35580 | 17.71830 | 30179 ft | 498 kts | 234° |
| 2026-04-23 16:42 | 49.33445 | 17.67643 | 30428 ft | 500 kts | 233° |
| 2026-04-23 16:42 | 49.31321 | 17.63491 | 30643 ft | 501 kts | 233° |
| 2026-04-23 16:43 | 49.29164 | 17.59282 | 30918 ft | 503 kts | 233° |
| 2026-04-23 16:43 | 49.27001 | 17.55065 | 31149 ft | 505 kts | 233° |
| 2026-04-23 16:43 | 49.24824 | 17.50821 | 31387 ft | 506 kts | 233° |
| 2026-04-23 16:43 | 49.22644 | 17.46577 | 31681 ft | 506 kts | 233° |
| 2026-04-23 16:44 | 49.20469 | 17.42352 | 31993 ft | 505 kts | 233° |
| 2026-04-23 16:44 | 49.18294 | 17.38138 | 32286 ft | 505 kts | 233° |
| 2026-04-23 16:44 | 49.16119 | 17.33931 | 32582 ft | 504 kts | 233° |
| 2026-04-23 16:44 | 49.13943 | 17.29733 | 32863 ft | 503 kts | 233° |
| 2026-04-23 16:45 | 49.11772 | 17.25549 | 33142 ft | 502 kts | 233° |
| 2026-04-23 16:45 | 49.09596 | 17.21363 | 33429 ft | 502 kts | 233° |
| 2026-04-23 16:45 | 49.07431 | 17.17208 | 33707 ft | 501 kts | 233° |
| 2026-04-23 16:45 | 49.05262 | 17.13041 | 33952 ft | 500 kts | 233° |
| 2026-04-23 16:46 | 49.03101 | 17.08888 | 34102 ft | 499 kts | 233° |
| 2026-04-23 16:46 | 49.00945 | 17.04758 | 34110 ft | 498 kts | 233° |
| 2026-04-23 16:46 | 48.96657 | 16.96570 | 34084 ft | 497 kts | 233° |
| 2026-04-23 16:47 | 48.92336 | 16.88348 | 34042 ft | 498 kts | 232° |
| 2026-04-23 16:47 | 48.88001 | 16.80119 | 34066 ft | 499 kts | 232° |
| 2026-04-23 16:48 | 48.83654 | 16.71894 | 34078 ft | 499 kts | 232° |
| 2026-04-23 16:48 | 48.79305 | 16.63679 | 34077 ft | 498 kts | 233° |
| 2026-04-23 16:49 | 48.75584 | 16.54926 | 34105 ft | 496 kts | 241° |
| 2026-04-23 16:49 | 48.72050 | 16.45953 | 34098 ft | 496 kts | 241° |
| 2026-04-23 16:50 | 48.68493 | 16.37004 | 34103 ft | 496 kts | 241° |
| 2026-04-23 16:50 | 48.64977 | 16.28216 | 34111 ft | 496 kts | 241° |
| 2026-04-23 16:51 | 48.61396 | 16.19294 | 34094 ft | 497 kts | 240° |
| 2026-04-23 16:51 | 48.57785 | 16.10345 | 34118 ft | 497 kts | 240° |
| 2026-04-23 16:52 | 48.54193 | 16.01486 | 34116 ft | 497 kts | 240° |
| 2026-04-23 16:52 | 48.50585 | 15.92577 | 34116 ft | 497 kts | 240° |
| 2026-04-23 16:53 | 48.46970 | 15.83676 | 34120 ft | 497 kts | 240° |
| 2026-04-23 16:53 | 48.43355 | 15.74802 | 34140 ft | 497 kts | 240° |
| 2026-04-23 16:54 | 48.39739 | 15.65948 | 34118 ft | 496 kts | 240° |
| 2026-04-23 16:54 | 48.36138 | 15.57152 | 34135 ft | 497 kts | 240° |
| 2026-04-23 16:55 | 48.32494 | 15.48303 | 34136 ft | 497 kts | 240° |
| 2026-04-23 16:55 | 48.28841 | 15.39476 | 34153 ft | 497 kts | 240° |
| 2026-04-23 16:56 | 48.25131 | 15.30707 | 34150 ft | 495 kts | 237° |
| 2026-04-23 16:56 | 48.21232 | 15.22226 | 34163 ft | 494 kts | 236° |
| 2026-04-23 16:57 | 48.17331 | 15.13736 | 34166 ft | 494 kts | 237° |
| 2026-04-23 16:57 | 48.13425 | 15.05248 | 34164 ft | 496 kts | 236° |
| 2026-04-23 16:58 | 48.09502 | 14.96740 | 34168 ft | 497 kts | 236° |
| 2026-04-23 16:58 | 48.05556 | 14.88207 | 34182 ft | 499 kts | 235° |
| 2026-04-23 16:59 | 48.01592 | 14.79669 | 34181 ft | 500 kts | 235° |
| 2026-04-23 16:59 | 47.97649 | 14.71188 | 34186 ft | 500 kts | 235° |
| 2026-04-23 17:00 | 47.93676 | 14.62684 | 34195 ft | 500 kts | 235° |
| 2026-04-23 17:00 | 47.89693 | 14.54170 | 34198 ft | 500 kts | 235° |
| 2026-04-23 17:01 | 47.85713 | 14.45688 | 34202 ft | 498 kts | 235° |
| 2026-04-23 17:01 | 47.81737 | 14.37257 | 34204 ft | 498 kts | 235° |
| 2026-04-23 17:02 | 47.77750 | 14.28824 | 34219 ft | 498 kts | 235° |
| 2026-04-23 17:02 | 47.73777 | 14.20432 | 34236 ft | 497 kts | 235° |
| 2026-04-23 17:03 | 47.69805 | 14.12089 | 34228 ft | 496 kts | 235° |
| 2026-04-23 17:03 | 47.65815 | 14.03730 | 34235 ft | 496 kts | 235° |
| 2026-04-23 17:04 | 47.61819 | 13.95371 | 34227 ft | 496 kts | 235° |
| 2026-04-23 17:04 | 47.57813 | 13.87029 | 34241 ft | 495 kts | 235° |
| 2026-04-23 17:05 | 47.53810 | 13.78715 | 34253 ft | 495 kts | 235° |
| 2026-04-23 17:05 | 47.49806 | 13.70416 | 34244 ft | 495 kts | 235° |
| 2026-04-23 17:06 | 47.45785 | 13.62135 | 34239 ft | 495 kts | 234° |
| 2026-04-23 17:06 | 47.41761 | 13.53875 | 34256 ft | 495 kts | 235° |
| 2026-04-23 17:07 | 47.37759 | 13.45621 | 34246 ft | 493 kts | 236° |
| 2026-04-23 17:07 | 47.33832 | 13.37399 | 34215 ft | 494 kts | 235° |
| 2026-04-23 17:08 | 47.29869 | 13.29123 | 34233 ft | 494 kts | 235° |
| 2026-04-23 17:08 | 47.25887 | 13.20883 | 34229 ft | 493 kts | 235° |
| 2026-04-23 17:09 | 47.22579 | 13.14066 | 34248 ft | 492 kts | 235° |
| 2026-04-23 17:09 | 47.18593 | 13.05855 | 34237 ft | 492 kts | 235° |
| 2026-04-23 17:10 | 47.14608 | 12.97677 | 34215 ft | 493 kts | 235° |
| 2026-04-23 17:10 | 47.10619 | 12.89516 | 34229 ft | 491 kts | 235° |
| 2026-04-23 17:11 | 47.06629 | 12.81367 | 34215 ft | 490 kts | 235° |
| 2026-04-23 17:11 | 47.02647 | 12.73271 | 34220 ft | 489 kts | 235° |
| 2026-04-23 17:12 | 46.98666 | 12.65188 | 34210 ft | 488 kts | 235° |
| 2026-04-23 17:12 | 46.94678 | 12.57120 | 34242 ft | 489 kts | 235° |
| 2026-04-23 17:13 | 46.90701 | 12.49108 | 34220 ft | 489 kts | 235° |
| 2026-04-23 17:13 | 46.86707 | 12.41075 | 34209 ft | 487 kts | 235° |
| 2026-04-23 17:14 | 46.82719 | 12.33081 | 34224 ft | 487 kts | 235° |
| 2026-04-23 17:14 | 46.78618 | 12.25168 | 34227 ft | 488 kts | 232° |
| 2026-04-23 17:15 | 46.74350 | 12.17441 | 34187 ft | 489 kts | 232° |
| 2026-04-23 17:15 | 46.70076 | 12.09748 | 34181 ft | 487 kts | 231° |
| 2026-04-23 17:16 | 46.65815 | 12.02089 | 34158 ft | 487 kts | 231° |
| 2026-04-23 17:16 | 46.61575 | 11.94480 | 34150 ft | 487 kts | 231° |
| 2026-04-23 17:17 | 46.57402 | 11.86689 | 34170 ft | 487 kts | 234° |
| 2026-04-23 17:17 | 46.53389 | 11.78814 | 34139 ft | 484 kts | 234° |
| 2026-04-23 17:18 | 46.47333 | 11.67038 | 34126 ft | 484 kts | 234° |
| 2026-04-23 17:19 | 46.43292 | 11.59220 | 34095 ft | 485 kts | 233° |
| 2026-04-23 17:19 | 46.39267 | 11.51453 | 34146 ft | 484 kts | 233° |
| 2026-04-23 17:20 | 46.35237 | 11.43691 | 34149 ft | 481 kts | 234° |
| 2026-04-23 17:21 | 46.27169 | 11.28229 | 34152 ft | 481 kts | 233° |
| 2026-04-23 17:21 | 46.21118 | 11.16687 | 34222 ft | 479 kts | 233° |
| 2026-04-23 17:22 | 46.15070 | 11.05191 | 34222 ft | 480 kts | 233° |
| 2026-04-23 17:23 | 46.09005 | 10.93724 | 34201 ft | 479 kts | 233° |
| 2026-04-23 17:24 | 46.02927 | 10.82267 | 34202 ft | 478 kts | 233° |
| 2026-04-23 17:24 | 45.96852 | 10.70878 | 34171 ft | 478 kts | 232° |
| 2026-04-23 17:25 | 45.91455 | 10.60786 | 34188 ft | 478 kts | 232° |
| 2026-04-23 17:26 | 45.83031 | 10.45113 | 34180 ft | 473 kts | 232° |
| 2026-04-23 17:27 | 45.76322 | 10.32683 | 34172 ft | 474 kts | 232° |
| 2026-04-23 17:27 | 45.72275 | 10.25223 | 34172 ft | 475 kts | 232° |
| 2026-04-23 17:28 | 45.68234 | 10.17784 | 34153 ft | 470 kts | 232° |
| 2026-04-23 17:28 | 45.63915 | 10.10806 | 34135 ft | 469 kts | 215° |
| 2026-04-23 17:29 | 45.61169 | 10.08339 | 33880 ft | 465 kts | 208° |
| 2026-04-23 17:29 | 45.58357 | 10.06097 | 32940 ft | 469 kts | 207° |
| 2026-04-23 17:29 | 45.52715 | 10.01584 | 31744 ft | 460 kts | 208° |
| 2026-04-23 17:30 | 45.50842 | 10.00052 | 31328 ft | 458 kts | 208° |
| 2026-04-23 17:30 | 45.45360 | 9.95539 | 30140 ft | 451 kts | 208° |
| 2026-04-23 17:30 | 45.42661 | 9.93321 | 29510 ft | 447 kts | 208° |
| 2026-04-23 17:31 | 45.39982 | 9.91122 | 28902 ft | 442 kts | 208° |
| 2026-04-23 17:31 | 45.37326 | 9.88946 | 28347 ft | 436 kts | 208° |
| 2026-04-23 17:31 | 45.34709 | 9.86805 | 27744 ft | 433 kts | 208° |
| 2026-04-23 17:31 | 45.32145 | 9.84708 | 27236 ft | 427 kts | 209° |
| 2026-04-23 17:32 | 45.29584 | 9.82613 | 26638 ft | 424 kts | 209° |
| 2026-04-23 17:32 | 45.27041 | 9.80535 | 26108 ft | 419 kts | 209° |
| 2026-04-23 17:32 | 45.24519 | 9.78477 | 25551 ft | 416 kts | 209° |
| 2026-04-23 17:32 | 45.22025 | 9.76445 | 25049 ft | 412 kts | 209° |
| 2026-04-23 17:33 | 45.19546 | 9.74432 | 24512 ft | 409 kts | 209° |
| 2026-04-23 17:33 | 45.17019 | 9.72651 | 24022 ft | 404 kts | 204° |
| 2026-04-23 17:33 | 45.14462 | 9.71018 | 23479 ft | 401 kts | 204° |
| 2026-04-23 17:33 | 45.11923 | 9.69422 | 22915 ft | 397 kts | 204° |
| 2026-04-23 17:34 | 45.09401 | 9.67834 | 22353 ft | 394 kts | 204° |
| 2026-04-23 17:34 | 45.06927 | 9.66273 | 22002 ft | 385 kts | 204° |
| 2026-04-23 17:34 | 45.02156 | 9.63262 | 21432 ft | 366 kts | 204° |
| 2026-04-23 17:35 | 44.99857 | 9.61811 | 21133 ft | 361 kts | 204° |
| 2026-04-23 17:35 | 44.95291 | 9.58935 | 20310 ft | 357 kts | 204° |
| 2026-04-23 17:35 | 44.93028 | 9.57513 | 19870 ft | 356 kts | 204° |
| 2026-04-23 17:36 | 44.90764 | 9.56089 | 19412 ft | 356 kts | 204° |
| 2026-04-23 17:36 | 44.88445 | 9.54874 | 18775 ft | 358 kts | 191° |
| 2026-04-23 17:36 | 44.85965 | 9.54633 | 17953 ft | 363 kts | 175° |
| 2026-04-23 17:36 | 44.83488 | 9.54889 | 17477 ft | 359 kts | 173° |
| 2026-04-23 17:37 | 44.80975 | 9.55189 | 17012 ft | 354 kts | 173° |
| 2026-04-23 17:37 | 44.78559 | 9.55445 | 16601 ft | 349 kts | 174° |
| 2026-04-23 17:37 | 44.73797 | 9.55884 | 15835 ft | 338 kts | 174° |
| 2026-04-23 17:38 | 44.71475 | 9.56085 | 15461 ft | 333 kts | 174° |
| 2026-04-23 17:38 | 44.69170 | 9.56284 | 15092 ft | 328 kts | 174° |
| 2026-04-23 17:38 | 44.66905 | 9.56478 | 14700 ft | 324 kts | 174° |
| 2026-04-23 17:38 | 44.64664 | 9.56668 | 14315 ft | 321 kts | 174° |
| 2026-04-23 17:39 | 44.62443 | 9.56857 | 13936 ft | 317 kts | 174° |
| 2026-04-23 17:39 | 44.60235 | 9.57045 | 13529 ft | 319 kts | 174° |
| 2026-04-23 17:39 | 44.58015 | 9.57233 | 13135 ft | 320 kts | 174° |
| 2026-04-23 17:39 | 44.55784 | 9.57422 | 12755 ft | 321 kts | 174° |
| 2026-04-23 17:40 | 44.53551 | 9.57610 | 12361 ft | 322 kts | 174° |
| 2026-04-23 17:40 | 44.51306 | 9.57800 | 11965 ft | 324 kts | 174° |
| 2026-04-23 17:40 | 44.49049 | 9.57992 | 11568 ft | 324 kts | 174° |
| 2026-04-23 17:40 | 44.46816 | 9.58180 | 11170 ft | 320 kts | 174° |
| 2026-04-23 17:41 | 44.44606 | 9.58366 | 10775 ft | 316 kts | 174° |
| 2026-04-23 17:41 | 44.40277 | 9.58199 | 9990 ft | 313 kts | 195° |
| 2026-04-23 17:41 | 44.38265 | 9.57072 | 9585 ft | 311 kts | 202° |
| 2026-04-23 17:42 | 44.34378 | 9.54551 | 8749 ft | 306 kts | 204° |
| 2026-04-23 17:42 | 44.32483 | 9.53314 | 8360 ft | 303 kts | 203° |
| 2026-04-23 17:42 | 44.30582 | 9.52075 | 7959 ft | 300 kts | 204° |
| 2026-04-23 17:43 | 44.28699 | 9.50860 | 7585 ft | 297 kts | 203° |
| 2026-04-23 17:43 | 44.26844 | 9.49611 | 7214 ft | 295 kts | 210° |
| 2026-04-23 17:43 | 44.25297 | 9.47791 | 6977 ft | 291 kts | 231° |
| 2026-04-23 17:43 | 44.24336 | 9.45332 | 6806 ft | 291 kts | 253° |
| 2026-04-23 17:44 | 44.24081 | 9.42554 | 6558 ft | 286 kts | 276° |
| 2026-04-23 17:44 | 44.24519 | 9.39880 | 6229 ft | 281 kts | 292° |
| 2026-04-23 17:44 | 44.25956 | 9.34872 | 5517 ft | 277 kts | 294° |
| 2026-04-23 17:45 | 44.26659 | 9.32385 | 5163 ft | 273 kts | 293° |
| 2026-04-23 17:45 | 44.28023 | 9.27515 | 4433 ft | 266 kts | 292° |
| 2026-04-23 17:45 | 44.28969 | 9.25344 | 4091 ft | 263 kts | 314° |
| 2026-04-23 17:46 | 44.31562 | 9.22116 | 3962 ft | 235 kts | 317° |
| 2026-04-23 17:46 | 44.32607 | 9.20473 | 3956 ft | 219 kts | 307° |
| 2026-04-23 17:46 | 44.33340 | 9.18761 | 4018 ft | 193 kts | 298° |
| 2026-04-23 17:47 | 44.33844 | 9.17136 | 3999 ft | 172 kts | 294° |
| 2026-04-23 17:47 | 44.34238 | 9.15625 | 3974 ft | 165 kts | 291° |
| 2026-04-23 17:47 | 44.34975 | 9.12645 | 4014 ft | 166 kts | 290° |
| 2026-04-23 17:48 | 44.35320 | 9.11129 | 3909 ft | 166 kts | 289° |
| 2026-04-23 17:48 | 44.35649 | 9.09641 | 3722 ft | 148 kts | 289° |
| 2026-04-23 17:48 | 44.35946 | 9.08295 | 3514 ft | 146 kts | 288° |
| 2026-04-23 17:48 | 44.36247 | 9.06928 | 3294 ft | 145 kts | 288° |
| 2026-04-23 17:49 | 44.36539 | 9.05600 | 3095 ft | 145 kts | 288° |
| 2026-04-23 17:49 | 44.36834 | 9.04257 | 2886 ft | 144 kts | 288° |
| 2026-04-23 17:49 | 44.37109 | 9.03009 | 2697 ft | 144 kts | 288° |
| 2026-04-23 17:49 | 44.37407 | 9.01652 | 2494 ft | 143 kts | 288° |
| 2026-04-23 17:50 | 44.37700 | 9.00318 | 2294 ft | 143 kts | 288° |
| 2026-04-23 17:50 | 44.38285 | 8.97654 | 1884 ft | 143 kts | 287° |
| 2026-04-23 17:50 | 44.38576 | 8.96325 | 1681 ft | 142 kts | 286° |
| 2026-04-23 17:51 | 44.38862 | 8.95023 | 1462 ft | 142 kts | 285° |
| 2026-04-23 17:51 | 44.39151 | 8.93705 | 1264 ft | 142 kts | 285° |
| 2026-04-23 17:51 | 44.39815 | 8.91093 | 862 ft | 141 kts | 284° |
| 2026-04-23 17:52 | 44.40085 | 8.89800 | 696 ft | 140 kts | 284° |
| 2026-04-23 17:52 | 44.40606 | 8.87194 | 266 ft | 138 kts | 284° |
| 2026-04-23 17:52 | 44.40862 | 8.85897 | 82 ft | 138 kts | 283° |
| 2026-04-23 17:53 | 44.41291 | 8.83713 | 25 ft | 61 kts | 285° |
| 2026-04-23 17:53 | 44.41333 | 8.83493 | 27 ft | 6 kts | 285° |
| 2026-04-23 17:53 | 44.41347 | 8.83424 | 27 ft | 9 kts | 285° |
| 2026-04-23 17:54 | 44.41366 | 8.83325 | 27 ft | 12 kts | 285° |
| 2026-04-23 17:54 | 44.41393 | 8.83212 | 28 ft | 14 kts | 297° |
| 2026-04-23 17:54 | 44.41544 | 8.83167 | 28 ft | 17 kts | 102° |
| 2026-04-23 17:55 | 44.41479 | 8.83516 | 25 ft | 20 kts | 105° |
| 2026-04-23 17:55 | 44.41442 | 8.83709 | 28 ft | 21 kts | 105° |
| 2026-04-23 17:55 | 44.41401 | 8.83915 | 25 ft | 23 kts | 105° |
| 2026-04-23 17:56 | 44.41358 | 8.84133 | 25 ft | 24 kts | 105° |
| 2026-04-23 17:56 | 44.41359 | 8.84490 | 25 ft | 18 kts | 51° |
| 2026-04-23 17:56 | 44.41411 | 8.84617 | 25 ft | 11 kts | 99° |
| 2026-04-23 17:57 | 44.41394 | 8.84729 | 25 ft | 13 kts | 105° |
| 2026-04-23 17:57 | 44.41369 | 8.84856 | 27 ft | 14 kts | 105° |
| 2026-04-23 17:57 | 44.41386 | 8.84985 | 27 ft | 4 kts | 93° |
| 2026-04-23 17:58 | 44.41387 | 8.85013 | 25 ft | 1 kts | 59° |
| 2026-04-23 17:58 | 44.41397 | 8.85027 | 25 ft | 3 kts | 30° |
| 2026-04-23 17:58 | 44.41404 | 8.85031 | 25 ft | 0 kts | 18° |
| 2026-04-23 17:58 | 44.41416 | 8.85037 | 25 ft | 3 kts | 13° |
| 2026-04-23 17:59 | 44.41417 | 8.85037 | 25 ft | 0 kts | 14° |